sensor_id;sensor_type;location;lat;lon;timestamp;P1;durP1;ratioP1;P2;durP2;ratioP2
5841;SDS011;2947;52.276;9.946;2023-05-31T00:00:16;18.50;;;5.88;;
5841;SDS011;2947;52.276;9.946;2023-05-31T00:02:42;11.32;;;5.45;;
5841;SDS011;2947;52.276;9.946;2023-05-31T00:05:08;18.00;;;5.50;;
5841;SDS011;2947;52.276;9.946;2023-05-31T00:07:34;14.73;;;5.78;;
5841;SDS011;2947;52.276;9.946;2023-05-31T00:10:00;12.60;;;5.65;;
5841;SDS011;2947;52.276;9.946;2023-05-31T00:12:26;12.23;;;5.22;;
5841;SDS011;2947;52.276;9.946;2023-05-31T00:14:51;11.57;;;5.45;;
5841;SDS011;2947;52.276;9.946;2023-05-31T00:17:17;7.97;;;4.88;;
5841;SDS011;2947;52.276;9.946;2023-05-31T00:19:43;13.48;;;5.45;;
5841;SDS011;2947;52.276;9.946;2023-05-31T00:22:09;11.40;;;5.22;;
5841;SDS011;2947;52.276;9.946;2023-05-31T00:24:35;21.35;;;5.78;;
5841;SDS011;2947;52.276;9.946;2023-05-31T00:27:01;15.15;;;5.78;;
5841;SDS011;2947;52.276;9.946;2023-05-31T00:29:27;10.30;;;5.10;;
5841;SDS011;2947;52.276;9.946;2023-05-31T00:31:53;13.48;;;6.38;;
5841;SDS011;2947;52.276;9.946;2023-05-31T00:34:21;16.15;;;6.63;;
5841;SDS011;2947;52.276;9.946;2023-05-31T00:36:46;11.68;;;6.03;;
5841;SDS011;2947;52.276;9.946;2023-05-31T00:39:12;9.98;;;5.00;;
5841;SDS011;2947;52.276;9.946;2023-05-31T00:41:38;10.65;;;5.70;;
5841;SDS011;2947;52.276;9.946;2023-05-31T00:44:03;11.25;;;5.60;;
5841;SDS011;2947;52.276;9.946;2023-05-31T00:46:31;12.70;;;6.35;;
5841;SDS011;2947;52.276;9.946;2023-05-31T00:49:00;13.20;;;4.40;;
5841;SDS011;2947;52.276;9.946;2023-05-31T00:51:28;16.35;;;5.25;;
5841;SDS011;2947;52.276;9.946;2023-05-31T00:53:56;19.55;;;6.22;;
5841;SDS011;2947;52.276;9.946;2023-05-31T00:56:23;12.23;;;6.13;;
5841;SDS011;2947;52.276;9.946;2023-05-31T00:58:49;10.80;;;5.20;;
5841;SDS011;2947;52.276;9.946;2023-05-31T01:01:18;7.68;;;5.20;;
5841;SDS011;2947;52.276;9.946;2023-05-31T01:03:45;14.13;;;6.47;;
5841;SDS011;2947;52.276;9.946;2023-05-31T01:06:11;14.98;;;5.93;;
5841;SDS011;2947;52.276;9.946;2023-05-31T01:08:37;12.13;;;5.30;;
5841;SDS011;2947;52.276;9.946;2023-05-31T01:11:07;16.73;;;5.40;;
5841;SDS011;2947;52.276;9.946;2023-05-31T01:16:21;17.55;;;5.63;;
5841;SDS011;2947;52.276;9.946;2023-05-31T01:18:58;12.20;;;5.30;;
5841;SDS011;2947;52.276;9.946;2023-05-31T01:25:00;12.32;;;5.78;;
5841;SDS011;2947;52.276;9.946;2023-05-31T01:28:22;10.55;;;5.85;;
5841;SDS011;2947;52.276;9.946;2023-05-31T01:30:51;12.57;;;5.28;;
5841;SDS011;2947;52.276;9.946;2023-05-31T01:33:18;10.30;;;4.82;;
5841;SDS011;2947;52.276;9.946;2023-05-31T01:35:45;18.27;;;6.18;;
5841;SDS011;2947;52.276;9.946;2023-05-31T01:38:11;17.20;;;6.32;;
5841;SDS011;2947;52.276;9.946;2023-05-31T01:40:36;13.07;;;6.32;;
5841;SDS011;2947;52.276;9.946;2023-05-31T01:43:04;10.52;;;5.43;;
5841;SDS011;2947;52.276;9.946;2023-05-31T01:45:31;13.27;;;7.05;;
5841;SDS011;2947;52.276;9.946;2023-05-31T01:48:03;16.20;;;5.45;;
5841;SDS011;2947;52.276;9.946;2023-05-31T01:50:31;17.15;;;6.55;;
5841;SDS011;2947;52.276;9.946;2023-05-31T01:53:00;9.75;;;5.45;;
5841;SDS011;2947;52.276;9.946;2023-05-31T01:55:26;12.55;;;5.22;;
5841;SDS011;2947;52.276;9.946;2023-05-31T01:57:52;9.85;;;5.30;;
5841;SDS011;2947;52.276;9.946;2023-05-31T02:00:19;8.30;;;5.28;;
5841;SDS011;2947;52.276;9.946;2023-05-31T02:02:47;12.00;;;4.53;;
5841;SDS011;2947;52.276;9.946;2023-05-31T02:05:13;11.05;;;4.95;;
5841;SDS011;2947;52.276;9.946;2023-05-31T02:07:42;11.45;;;5.88;;
5841;SDS011;2947;52.276;9.946;2023-05-31T02:10:10;11.90;;;5.85;;
5841;SDS011;2947;52.276;9.946;2023-05-31T02:12:37;10.77;;;6.00;;
5841;SDS011;2947;52.276;9.946;2023-05-31T02:15:03;15.43;;;7.35;;
5841;SDS011;2947;52.276;9.946;2023-05-31T02:17:35;15.35;;;6.22;;
5841;SDS011;2947;52.276;9.946;2023-05-31T02:20:05;13.48;;;6.07;;
5841;SDS011;2947;52.276;9.946;2023-05-31T02:22:38;10.65;;;5.72;;
5841;SDS011;2947;52.276;9.946;2023-05-31T02:25:06;11.03;;;6.10;;
5841;SDS011;2947;52.276;9.946;2023-05-31T02:27:37;15.90;;;6.50;;
5841;SDS011;2947;52.276;9.946;2023-05-31T02:30:03;11.23;;;5.57;;
5841;SDS011;2947;52.276;9.946;2023-05-31T02:32:31;13.85;;;6.43;;
5841;SDS011;2947;52.276;9.946;2023-05-31T02:35:07;11.82;;;6.15;;
5841;SDS011;2947;52.276;9.946;2023-05-31T02:37:35;13.00;;;6.00;;
5841;SDS011;2947;52.276;9.946;2023-05-31T02:40:03;11.67;;;6.47;;
5841;SDS011;2947;52.276;9.946;2023-05-31T02:42:40;12.20;;;6.17;;
5841;SDS011;2947;52.276;9.946;2023-05-31T02:45:07;20.30;;;6.60;;
5841;SDS011;2947;52.276;9.946;2023-05-31T02:47:35;13.90;;;6.10;;
5841;SDS011;2947;52.276;9.946;2023-05-31T02:50:03;15.17;;;6.60;;
5841;SDS011;2947;52.276;9.946;2023-05-31T02:52:34;15.70;;;7.00;;
5841;SDS011;2947;52.276;9.946;2023-05-31T02:55:00;11.15;;;5.72;;
5841;SDS011;2947;52.276;9.946;2023-05-31T02:57:26;11.20;;;6.37;;
5841;SDS011;2947;52.276;9.946;2023-05-31T02:59:54;11.23;;;5.80;;
5841;SDS011;2947;52.276;9.946;2023-05-31T03:02:23;17.53;;;6.50;;
5841;SDS011;2947;52.276;9.946;2023-05-31T03:04:49;18.37;;;7.60;;
5841;SDS011;2947;52.276;9.946;2023-05-31T03:07:15;16.83;;;6.73;;
5841;SDS011;2947;52.276;9.946;2023-05-31T03:09:42;10.90;;;6.00;;
5841;SDS011;2947;52.276;9.946;2023-05-31T03:12:07;14.38;;;5.97;;
5841;SDS011;2947;52.276;9.946;2023-05-31T03:14:35;14.57;;;6.30;;
5841;SDS011;2947;52.276;9.946;2023-05-31T03:17:01;14.73;;;6.47;;
5841;SDS011;2947;52.276;9.946;2023-05-31T03:19:28;13.67;;;5.87;;
5841;SDS011;2947;52.276;9.946;2023-05-31T03:21:53;14.70;;;6.40;;
5841;SDS011;2947;52.276;9.946;2023-05-31T03:24:19;10.27;;;5.67;;
5841;SDS011;2947;52.276;9.946;2023-05-31T03:26:45;10.40;;;5.50;;
5841;SDS011;2947;52.276;9.946;2023-05-31T03:29:11;16.20;;;6.67;;
5841;SDS011;2947;52.276;9.946;2023-05-31T03:31:36;15.90;;;6.10;;
5841;SDS011;2947;52.276;9.946;2023-05-31T03:34:02;18.40;;;6.50;;
5841;SDS011;2947;52.276;9.946;2023-05-31T03:36:28;13.50;;;6.27;;
5841;SDS011;2947;52.276;9.946;2023-05-31T03:38:53;21.30;;;7.23;;
5841;SDS011;2947;52.276;9.946;2023-05-31T03:41:19;14.70;;;6.50;;
5841;SDS011;2947;52.276;9.946;2023-05-31T03:43:45;11.87;;;5.63;;
5841;SDS011;2947;52.276;9.946;2023-05-31T03:46:11;20.40;;;6.33;;
5841;SDS011;2947;52.276;9.946;2023-05-31T03:48:36;18.10;;;6.97;;
5841;SDS011;2947;52.276;9.946;2023-05-31T03:51:02;18.20;;;6.80;;
5841;SDS011;2947;52.276;9.946;2023-05-31T03:53:28;12.83;;;5.70;;
5841;SDS011;2947;52.276;9.946;2023-05-31T03:55:53;16.07;;;6.87;;
5841;SDS011;2947;52.276;9.946;2023-05-31T03:58:19;11.73;;;5.93;;
5841;SDS011;2947;52.276;9.946;2023-05-31T04:00:45;13.60;;;6.20;;
5841;SDS011;2947;52.276;9.946;2023-05-31T04:03:11;12.10;;;7.10;;
5841;SDS011;2947;52.276;9.946;2023-05-31T04:05:37;13.57;;;6.13;;
5841;SDS011;2947;52.276;9.946;2023-05-31T04:08:04;16.53;;;5.80;;
5841;SDS011;2947;52.276;9.946;2023-05-31T04:10:30;16.27;;;6.50;;
5841;SDS011;2947;52.276;9.946;2023-05-31T04:12:56;14.20;;;6.10;;
5841;SDS011;2947;52.276;9.946;2023-05-31T04:15:22;13.53;;;5.80;;
5841;SDS011;2947;52.276;9.946;2023-05-31T04:17:48;15.70;;;5.83;;
5841;SDS011;2947;52.276;9.946;2023-05-31T04:20:13;16.53;;;6.03;;
5841;SDS011;2947;52.276;9.946;2023-05-31T04:22:41;15.20;;;7.00;;
5841;SDS011;2947;52.276;9.946;2023-05-31T04:25:07;12.50;;;6.27;;
5841;SDS011;2947;52.276;9.946;2023-05-31T04:27:38;11.80;;;6.37;;
5841;SDS011;2947;52.276;9.946;2023-05-31T04:30:05;14.70;;;6.33;;
5841;SDS011;2947;52.276;9.946;2023-05-31T04:32:33;12.73;;;6.70;;
5841;SDS011;2947;52.276;9.946;2023-05-31T04:34:59;17.13;;;7.33;;
5841;SDS011;2947;52.276;9.946;2023-05-31T04:37:28;12.10;;;6.33;;
5841;SDS011;2947;52.276;9.946;2023-05-31T04:39:58;12.77;;;5.90;;
5841;SDS011;2947;52.276;9.946;2023-05-31T04:42:25;12.17;;;7.10;;
5841;SDS011;2947;52.276;9.946;2023-05-31T04:44:56;12.30;;;6.27;;
5841;SDS011;2947;52.276;9.946;2023-05-31T04:47:26;15.27;;;6.23;;
5841;SDS011;2947;52.276;9.946;2023-05-31T04:49:53;13.83;;;5.80;;
5841;SDS011;2947;52.276;9.946;2023-05-31T04:52:22;20.33;;;7.17;;
5841;SDS011;2947;52.276;9.946;2023-05-31T04:54:51;15.63;;;6.17;;
5841;SDS011;2947;52.276;9.946;2023-05-31T04:57:18;12.00;;;6.53;;
5841;SDS011;2947;52.276;9.946;2023-05-31T04:59:44;10.53;;;5.80;;
5841;SDS011;2947;52.276;9.946;2023-05-31T05:02:10;12.70;;;5.80;;
5841;SDS011;2947;52.276;9.946;2023-05-31T05:04:35;12.80;;;6.10;;
5841;SDS011;2947;52.276;9.946;2023-05-31T05:07:01;11.00;;;5.73;;
5841;SDS011;2947;52.276;9.946;2023-05-31T05:09:27;15.30;;;7.50;;
5841;SDS011;2947;52.276;9.946;2023-05-31T05:11:53;17.50;;;6.27;;
5841;SDS011;2947;52.276;9.946;2023-05-31T05:14:19;13.47;;;6.70;;
5841;SDS011;2947;52.276;9.946;2023-05-31T05:16:45;14.50;;;6.17;;
5841;SDS011;2947;52.276;9.946;2023-05-31T05:19:11;15.03;;;7.17;;
5841;SDS011;2947;52.276;9.946;2023-05-31T05:21:36;13.03;;;6.43;;
5841;SDS011;2947;52.276;9.946;2023-05-31T05:24:02;13.90;;;5.87;;
5841;SDS011;2947;52.276;9.946;2023-05-31T05:26:28;16.57;;;6.93;;
5841;SDS011;2947;52.276;9.946;2023-05-31T05:28:53;12.38;;;6.15;;
5841;SDS011;2947;52.276;9.946;2023-05-31T05:31:19;16.42;;;5.72;;
5841;SDS011;2947;52.276;9.946;2023-05-31T05:33:45;15.73;;;6.03;;
5841;SDS011;2947;52.276;9.946;2023-05-31T05:36:11;14.77;;;6.28;;
5841;SDS011;2947;52.276;9.946;2023-05-31T05:38:36;13.85;;;6.10;;
5841;SDS011;2947;52.276;9.946;2023-05-31T05:41:02;12.27;;;5.85;;
5841;SDS011;2947;52.276;9.946;2023-05-31T05:43:28;13.23;;;6.07;;
5841;SDS011;2947;52.276;9.946;2023-05-31T05:45:55;10.05;;;5.50;;
5841;SDS011;2947;52.276;9.946;2023-05-31T05:48:20;13.52;;;5.47;;
5841;SDS011;2947;52.276;9.946;2023-05-31T05:50:46;11.75;;;5.63;;
5841;SDS011;2947;52.276;9.946;2023-05-31T05:53:12;12.25;;;5.88;;
5841;SDS011;2947;52.276;9.946;2023-05-31T05:55:38;11.65;;;6.03;;
5841;SDS011;2947;52.276;9.946;2023-05-31T05:58:04;10.80;;;5.57;;
5841;SDS011;2947;52.276;9.946;2023-05-31T06:00:30;11.18;;;7.07;;
5841;SDS011;2947;52.276;9.946;2023-05-31T06:02:56;11.40;;;5.47;;
5841;SDS011;2947;52.276;9.946;2023-05-31T06:05:21;11.02;;;5.70;;
5841;SDS011;2947;52.276;9.946;2023-05-31T06:07:51;10.23;;;5.68;;
5841;SDS011;2947;52.276;9.946;2023-05-31T06:10:17;11.60;;;5.95;;
5841;SDS011;2947;52.276;9.946;2023-05-31T06:12:43;9.93;;;5.35;;
5841;SDS011;2947;52.276;9.946;2023-05-31T06:15:09;12.52;;;4.90;;
5841;SDS011;2947;52.276;9.946;2023-05-31T06:17:35;10.15;;;5.15;;
5841;SDS011;2947;52.276;9.946;2023-05-31T06:20:01;10.35;;;5.00;;
5841;SDS011;2947;52.276;9.946;2023-05-31T06:22:30;8.10;;;4.80;;
5841;SDS011;2947;52.276;9.946;2023-05-31T06:24:56;16.00;;;4.78;;
5841;SDS011;2947;52.276;9.946;2023-05-31T06:27:23;13.93;;;5.25;;
5841;SDS011;2947;52.276;9.946;2023-05-31T06:29:49;9.15;;;4.38;;
5841;SDS011;2947;52.276;9.946;2023-05-31T06:32:20;9.43;;;4.25;;
5841;SDS011;2947;52.276;9.946;2023-05-31T06:34:46;12.15;;;4.80;;
5841;SDS011;2947;52.276;9.946;2023-05-31T06:37:12;11.32;;;4.38;;
5841;SDS011;2947;52.276;9.946;2023-05-31T06:39:39;9.85;;;4.55;;
5841;SDS011;2947;52.276;9.946;2023-05-31T06:42:04;7.93;;;3.88;;
5841;SDS011;2947;52.276;9.946;2023-05-31T06:44:31;10.27;;;5.10;;
5841;SDS011;2947;52.276;9.946;2023-05-31T06:46:57;8.98;;;4.28;;
5841;SDS011;2947;52.276;9.946;2023-05-31T06:49:22;11.18;;;4.30;;
5841;SDS011;2947;52.276;9.946;2023-05-31T06:51:48;9.25;;;4.65;;
5841;SDS011;2947;52.276;9.946;2023-05-31T06:54:14;12.35;;;4.60;;
5841;SDS011;2947;52.276;9.946;2023-05-31T06:56:40;10.77;;;3.83;;
5841;SDS011;2947;52.276;9.946;2023-05-31T06:59:05;12.30;;;4.00;;
5841;SDS011;2947;52.276;9.946;2023-05-31T07:01:31;9.52;;;4.38;;
5841;SDS011;2947;52.276;9.946;2023-05-31T07:03:57;10.30;;;4.30;;
5841;SDS011;2947;52.276;9.946;2023-05-31T07:06:23;9.35;;;4.05;;
5841;SDS011;2947;52.276;9.946;2023-05-31T07:08:50;11.13;;;3.90;;
5841;SDS011;2947;52.276;9.946;2023-05-31T07:11:16;7.50;;;3.33;;
5841;SDS011;2947;52.276;9.946;2023-05-31T07:13:42;13.63;;;3.67;;
5841;SDS011;2947;52.276;9.946;2023-05-31T07:16:08;10.23;;;3.88;;
5841;SDS011;2947;52.276;9.946;2023-05-31T07:18:34;6.80;;;3.72;;
5841;SDS011;2947;52.276;9.946;2023-05-31T07:20:59;10.05;;;3.55;;
5841;SDS011;2947;52.276;9.946;2023-05-31T07:23:26;6.97;;;3.55;;
5841;SDS011;2947;52.276;9.946;2023-05-31T07:25:52;7.43;;;3.60;;
5841;SDS011;2947;52.276;9.946;2023-05-31T07:28:17;13.20;;;3.92;;
5841;SDS011;2947;52.276;9.946;2023-05-31T07:30:43;10.88;;;3.78;;
5841;SDS011;2947;52.276;9.946;2023-05-31T07:33:09;10.18;;;3.10;;
5841;SDS011;2947;52.276;9.946;2023-05-31T07:35:35;8.82;;;3.55;;
5841;SDS011;2947;52.276;9.946;2023-05-31T07:38:00;7.72;;;2.80;;
5841;SDS011;2947;52.276;9.946;2023-05-31T07:40:26;6.22;;;2.80;;
5841;SDS011;2947;52.276;9.946;2023-05-31T07:42:53;7.55;;;2.75;;
5841;SDS011;2947;52.276;9.946;2023-05-31T07:45:18;10.77;;;4.53;;
5841;SDS011;2947;52.276;9.946;2023-05-31T07:47:45;9.60;;;3.45;;
5841;SDS011;2947;52.276;9.946;2023-05-31T07:50:10;6.47;;;3.00;;
5841;SDS011;2947;52.276;9.946;2023-05-31T07:52:36;8.05;;;2.58;;
5841;SDS011;2947;52.276;9.946;2023-05-31T07:55:02;7.28;;;2.60;;
5841;SDS011;2947;52.276;9.946;2023-05-31T07:57:28;6.18;;;2.53;;
5841;SDS011;2947;52.276;9.946;2023-05-31T07:59:53;10.30;;;3.25;;
5841;SDS011;2947;52.276;9.946;2023-05-31T08:02:19;7.57;;;3.95;;
5841;SDS011;2947;52.276;9.946;2023-05-31T08:04:45;12.55;;;3.63;;
5841;SDS011;2947;52.276;9.946;2023-05-31T08:07:11;8.15;;;3.33;;
5841;SDS011;2947;52.276;9.946;2023-05-31T08:09:36;5.90;;;3.15;;
5841;SDS011;2947;52.276;9.946;2023-05-31T08:12:02;11.50;;;4.30;;
5841;SDS011;2947;52.276;9.946;2023-05-31T08:14:28;9.40;;;3.22;;
5841;SDS011;2947;52.276;9.946;2023-05-31T08:16:54;10.70;;;3.47;;
5841;SDS011;2947;52.276;9.946;2023-05-31T08:19:20;9.88;;;3.88;;
5841;SDS011;2947;52.276;9.946;2023-05-31T08:21:46;8.27;;;3.03;;
5841;SDS011;2947;52.276;9.946;2023-05-31T08:24:12;9.85;;;2.97;;
5841;SDS011;2947;52.276;9.946;2023-05-31T08:26:38;8.52;;;3.05;;
5841;SDS011;2947;52.276;9.946;2023-05-31T08:29:03;8.95;;;2.70;;
5841;SDS011;2947;52.276;9.946;2023-05-31T08:31:29;5.10;;;2.40;;
5841;SDS011;2947;52.276;9.946;2023-05-31T08:33:56;12.95;;;3.53;;
5841;SDS011;2947;52.276;9.946;2023-05-31T08:36:24;10.15;;;3.08;;
5841;SDS011;2947;52.276;9.946;2023-05-31T08:38:50;9.23;;;3.22;;
5841;SDS011;2947;52.276;9.946;2023-05-31T08:41:17;9.95;;;3.00;;
5841;SDS011;2947;52.276;9.946;2023-05-31T08:43:44;7.45;;;2.83;;
5841;SDS011;2947;52.276;9.946;2023-05-31T08:46:11;6.72;;;2.70;;
5841;SDS011;2947;52.276;9.946;2023-05-31T08:51:09;5.07;;;1.92;;
5841;SDS011;2947;52.276;9.946;2023-05-31T08:53:35;7.85;;;3.13;;
5841;SDS011;2947;52.276;9.946;2023-05-31T08:56:02;9.48;;;3.10;;
5841;SDS011;2947;52.276;9.946;2023-05-31T08:58:29;13.25;;;2.60;;
5841;SDS011;2947;52.276;9.946;2023-05-31T09:00:55;10.00;;;2.85;;
5841;SDS011;2947;52.276;9.946;2023-05-31T09:03:22;8.50;;;2.83;;
5841;SDS011;2947;52.276;9.946;2023-05-31T09:05:48;6.43;;;2.08;;
5841;SDS011;2947;52.276;9.946;2023-05-31T09:08:14;4.93;;;2.53;;
5841;SDS011;2947;52.276;9.946;2023-05-31T09:10:40;6.75;;;2.35;;
5841;SDS011;2947;52.276;9.946;2023-05-31T09:13:06;6.90;;;2.63;;
5841;SDS011;2947;52.276;9.946;2023-05-31T09:15:33;8.07;;;3.05;;
5841;SDS011;2947;52.276;9.946;2023-05-31T09:18:12;5.93;;;2.40;;
5841;SDS011;2947;52.276;9.946;2023-05-31T09:20:42;7.30;;;1.90;;
5841;SDS011;2947;52.276;9.946;2023-05-31T09:23:09;6.47;;;1.90;;
5841;SDS011;2947;52.276;9.946;2023-05-31T09:25:47;7.72;;;2.08;;
5841;SDS011;2947;52.276;9.946;2023-05-31T09:28:16;5.68;;;2.40;;
5841;SDS011;2947;52.276;9.946;2023-05-31T09:30:44;5.05;;;2.10;;
5841;SDS011;2947;52.276;9.946;2023-05-31T09:33:10;9.88;;;2.42;;
5841;SDS011;2947;52.276;9.946;2023-05-31T09:35:38;12.55;;;3.55;;
5841;SDS011;2947;52.276;9.946;2023-05-31T09:38:23;8.07;;;2.47;;
5841;SDS011;2947;52.276;9.946;2023-05-31T09:41:10;5.78;;;2.05;;
5841;SDS011;2947;52.276;9.946;2023-05-31T09:43:40;10.63;;;2.38;;
5841;SDS011;2947;52.276;9.946;2023-05-31T09:46:15;8.77;;;2.40;;
5841;SDS011;2947;52.276;9.946;2023-05-31T09:48:43;13.68;;;2.65;;
5841;SDS011;2947;52.276;9.946;2023-05-31T09:51:10;9.73;;;2.65;;
5841;SDS011;2947;52.276;9.946;2023-05-31T09:53:43;8.07;;;2.78;;
5841;SDS011;2947;52.276;9.946;2023-05-31T09:56:10;9.65;;;2.80;;
5841;SDS011;2947;52.276;9.946;2023-05-31T09:58:36;6.13;;;2.45;;
5841;SDS011;2947;52.276;9.946;2023-05-31T10:01:04;8.18;;;2.13;;
5841;SDS011;2947;52.276;9.946;2023-05-31T10:03:30;10.20;;;2.88;;
5841;SDS011;2947;52.276;9.946;2023-05-31T10:05:57;8.18;;;2.08;;
5841;SDS011;2947;52.276;9.946;2023-05-31T10:08:24;6.53;;;2.10;;
5841;SDS011;2947;52.276;9.946;2023-05-31T10:10:50;10.48;;;2.22;;
5841;SDS011;2947;52.276;9.946;2023-05-31T10:13:20;6.07;;;2.17;;
5841;SDS011;2947;52.276;9.946;2023-05-31T10:15:51;8.48;;;2.03;;
5841;SDS011;2947;52.276;9.946;2023-05-31T10:18:22;7.10;;;1.98;;
5841;SDS011;2947;52.276;9.946;2023-05-31T10:21:05;5.90;;;2.00;;
5841;SDS011;2947;52.276;9.946;2023-05-31T10:23:37;8.18;;;1.75;;
5841;SDS011;2947;52.276;9.946;2023-05-31T10:26:18;7.65;;;1.98;;
5841;SDS011;2947;52.276;9.946;2023-05-31T10:28:47;7.57;;;2.15;;
5841;SDS011;2947;52.276;9.946;2023-05-31T10:31:25;7.97;;;2.35;;
5841;SDS011;2947;52.276;9.946;2023-05-31T10:34:02;6.50;;;2.60;;
5841;SDS011;2947;52.276;9.946;2023-05-31T10:36:44;11.05;;;2.10;;
5841;SDS011;2947;52.276;9.946;2023-05-31T10:39:13;5.05;;;1.80;;
5841;SDS011;2947;52.276;9.946;2023-05-31T10:41:52;6.50;;;2.03;;
5841;SDS011;2947;52.276;9.946;2023-05-31T10:44:28;7.20;;;1.85;;
5841;SDS011;2947;52.276;9.946;2023-05-31T10:47:03;5.40;;;1.98;;
5841;SDS011;2947;52.276;9.946;2023-05-31T10:49:34;6.70;;;1.85;;
5841;SDS011;2947;52.276;9.946;2023-05-31T10:52:05;6.03;;;2.00;;
5841;SDS011;2947;52.276;9.946;2023-05-31T10:54:33;8.45;;;2.10;;
5841;SDS011;2947;52.276;9.946;2023-05-31T10:56:59;5.22;;;1.80;;
5841;SDS011;2947;52.276;9.946;2023-05-31T10:59:29;7.25;;;2.40;;
5841;SDS011;2947;52.276;9.946;2023-05-31T11:02:05;5.93;;;1.98;;
5841;SDS011;2947;52.276;9.946;2023-05-31T11:04:31;9.55;;;1.98;;
5841;SDS011;2947;52.276;9.946;2023-05-31T11:09:58;5.63;;;1.88;;
5841;SDS011;2947;52.276;9.946;2023-05-31T11:12:34;6.28;;;2.00;;
5841;SDS011;2947;52.276;9.946;2023-05-31T11:15:03;6.50;;;2.00;;
5841;SDS011;2947;52.276;9.946;2023-05-31T11:17:38;7.57;;;2.30;;
5841;SDS011;2947;52.276;9.946;2023-05-31T11:20:32;6.30;;;1.63;;
5841;SDS011;2947;52.276;9.946;2023-05-31T11:26:08;6.93;;;2.15;;
5841;SDS011;2947;52.276;9.946;2023-05-31T11:28:54;5.50;;;2.17;;
5841;SDS011;2947;52.276;9.946;2023-05-31T11:34:31;5.75;;;1.98;;
5841;SDS011;2947;52.276;9.946;2023-05-31T11:37:00;10.38;;;1.95;;
5841;SDS011;2947;52.276;9.946;2023-05-31T11:39:28;5.88;;;1.77;;
5841;SDS011;2947;52.276;9.946;2023-05-31T11:41:54;5.05;;;1.92;;
5841;SDS011;2947;52.276;9.946;2023-05-31T11:44:30;4.70;;;1.70;;
5841;SDS011;2947;52.276;9.946;2023-05-31T11:46:58;4.25;;;1.45;;
5841;SDS011;2947;52.276;9.946;2023-05-31T11:49:31;7.03;;;2.05;;
5841;SDS011;2947;52.276;9.946;2023-05-31T11:51:58;3.20;;;1.38;;
5841;SDS011;2947;52.276;9.946;2023-05-31T11:54:25;8.63;;;1.85;;
5841;SDS011;2947;52.276;9.946;2023-05-31T11:56:55;5.05;;;1.70;;
5841;SDS011;2947;52.276;9.946;2023-05-31T11:59:41;9.55;;;1.80;;
5841;SDS011;2947;52.276;9.946;2023-05-31T12:02:08;6.30;;;1.75;;
5841;SDS011;2947;52.276;9.946;2023-05-31T12:04:38;6.18;;;2.05;;
5841;SDS011;2947;52.276;9.946;2023-05-31T12:07:09;6.82;;;2.60;;
5841;SDS011;2947;52.276;9.946;2023-05-31T12:09:36;5.55;;;1.80;;
5841;SDS011;2947;52.276;9.946;2023-05-31T12:12:03;6.30;;;1.63;;
5841;SDS011;2947;52.276;9.946;2023-05-31T12:14:33;3.83;;;1.40;;
5841;SDS011;2947;52.276;9.946;2023-05-31T12:17:05;7.15;;;2.00;;
5841;SDS011;2947;52.276;9.946;2023-05-31T12:19:31;3.80;;;1.40;;
5841;SDS011;2947;52.276;9.946;2023-05-31T12:21:58;5.50;;;1.58;;
5841;SDS011;2947;52.276;9.946;2023-05-31T12:24:26;5.40;;;1.45;;
5841;SDS011;2947;52.276;9.946;2023-05-31T12:26:52;5.25;;;1.35;;
5841;SDS011;2947;52.276;9.946;2023-05-31T12:29:22;4.53;;;1.65;;
5841;SDS011;2947;52.276;9.946;2023-05-31T12:31:59;7.20;;;2.00;;
5841;SDS011;2947;52.276;9.946;2023-05-31T12:34:28;5.90;;;1.50;;
5841;SDS011;2947;52.276;9.946;2023-05-31T12:36:55;7.78;;;2.42;;
5841;SDS011;2947;52.276;9.946;2023-05-31T12:39:24;4.45;;;1.58;;
5841;SDS011;2947;52.276;9.946;2023-05-31T12:41:51;8.73;;;1.92;;
5841;SDS011;2947;52.276;9.946;2023-05-31T12:44:18;4.85;;;1.77;;
5841;SDS011;2947;52.276;9.946;2023-05-31T12:46:49;7.75;;;2.30;;
5841;SDS011;2947;52.276;9.946;2023-05-31T12:49:20;7.85;;;2.33;;
5841;SDS011;2947;52.276;9.946;2023-05-31T12:54:35;5.55;;;1.85;;
5841;SDS011;2947;52.276;9.946;2023-05-31T12:57:03;6.82;;;2.15;;
5841;SDS011;2947;52.276;9.946;2023-05-31T12:59:31;6.57;;;1.83;;
5841;SDS011;2947;52.276;9.946;2023-05-31T13:01:58;7.88;;;2.45;;
5841;SDS011;2947;52.276;9.946;2023-05-31T13:04:24;6.60;;;1.90;;
5841;SDS011;2947;52.276;9.946;2023-05-31T13:06:51;4.68;;;2.05;;
5841;SDS011;2947;52.276;9.946;2023-05-31T13:09:22;5.65;;;1.50;;
5841;SDS011;2947;52.276;9.946;2023-05-31T13:11:48;5.55;;;1.80;;
5841;SDS011;2947;52.276;9.946;2023-05-31T13:14:17;3.90;;;1.40;;
5841;SDS011;2947;52.276;9.946;2023-05-31T13:16:44;4.70;;;1.70;;
5841;SDS011;2947;52.276;9.946;2023-05-31T13:19:11;5.13;;;1.67;;
5841;SDS011;2947;52.276;9.946;2023-05-31T13:21:37;7.68;;;2.15;;
5841;SDS011;2947;52.276;9.946;2023-05-31T13:24:04;6.07;;;1.70;;
5841;SDS011;2947;52.276;9.946;2023-05-31T13:26:31;8.35;;;2.33;;
5841;SDS011;2947;52.276;9.946;2023-05-31T13:28:59;4.05;;;1.77;;
5841;SDS011;2947;52.276;9.946;2023-05-31T13:31:29;7.00;;;1.70;;
5841;SDS011;2947;52.276;9.946;2023-05-31T13:33:55;5.90;;;1.92;;
5841;SDS011;2947;52.276;9.946;2023-05-31T13:36:21;5.57;;;1.95;;
5841;SDS011;2947;52.276;9.946;2023-05-31T13:38:51;5.50;;;2.15;;
5841;SDS011;2947;52.276;9.946;2023-05-31T13:41:17;5.35;;;1.77;;
5841;SDS011;2947;52.276;9.946;2023-05-31T13:43:43;4.15;;;1.73;;
5841;SDS011;2947;52.276;9.946;2023-05-31T13:46:09;4.82;;;2.00;;
5841;SDS011;2947;52.276;9.946;2023-05-31T13:48:39;5.32;;;1.95;;
5841;SDS011;2947;52.276;9.946;2023-05-31T13:51:05;5.03;;;1.75;;
5841;SDS011;2947;52.276;9.946;2023-05-31T13:53:31;7.68;;;1.90;;
5841;SDS011;2947;52.276;9.946;2023-05-31T13:55:57;5.68;;;1.88;;
5841;SDS011;2947;52.276;9.946;2023-05-31T13:58:23;5.45;;;2.00;;
5841;SDS011;2947;52.276;9.946;2023-05-31T14:00:49;3.92;;;1.60;;
5841;SDS011;2947;52.276;9.946;2023-05-31T14:03:15;7.47;;;1.40;;
5841;SDS011;2947;52.276;9.946;2023-05-31T14:05:41;4.90;;;1.85;;
5841;SDS011;2947;52.276;9.946;2023-05-31T14:08:11;6.82;;;1.85;;
5841;SDS011;2947;52.276;9.946;2023-05-31T14:10:38;6.50;;;1.80;;
5841;SDS011;2947;52.276;9.946;2023-05-31T14:13:04;7.18;;;1.60;;
5841;SDS011;2947;52.276;9.946;2023-05-31T14:15:30;11.60;;;1.88;;
5841;SDS011;2947;52.276;9.946;2023-05-31T14:17:56;5.35;;;1.60;;
5841;SDS011;2947;52.276;9.946;2023-05-31T14:20:22;5.32;;;1.90;;
5841;SDS011;2947;52.276;9.946;2023-05-31T14:22:48;6.82;;;1.83;;
5841;SDS011;2947;52.276;9.946;2023-05-31T14:25:14;5.57;;;2.20;;
5841;SDS011;2947;52.276;9.946;2023-05-31T14:27:40;7.60;;;1.95;;
5841;SDS011;2947;52.276;9.946;2023-05-31T14:30:06;9.82;;;2.33;;
5841;SDS011;2947;52.276;9.946;2023-05-31T14:32:32;10.60;;;1.70;;
5841;SDS011;2947;52.276;9.946;2023-05-31T14:34:58;7.82;;;1.70;;
5841;SDS011;2947;52.276;9.946;2023-05-31T14:37:24;6.28;;;2.10;;
5841;SDS011;2947;52.276;9.946;2023-05-31T14:39:50;5.72;;;1.92;;
5841;SDS011;2947;52.276;9.946;2023-05-31T14:42:16;6.07;;;2.17;;
5841;SDS011;2947;52.276;9.946;2023-05-31T14:44:42;6.38;;;2.00;;
5841;SDS011;2947;52.276;9.946;2023-05-31T14:47:07;6.82;;;1.85;;
5841;SDS011;2947;52.276;9.946;2023-05-31T14:49:33;5.90;;;1.90;;
5841;SDS011;2947;52.276;9.946;2023-05-31T14:51:59;6.18;;;1.70;;
5841;SDS011;2947;52.276;9.946;2023-05-31T14:54:26;5.32;;;1.80;;
5841;SDS011;2947;52.276;9.946;2023-05-31T14:56:52;9.30;;;1.60;;
5841;SDS011;2947;52.276;9.946;2023-05-31T14:59:18;5.00;;;1.70;;
5841;SDS011;2947;52.276;9.946;2023-05-31T15:01:43;7.13;;;2.05;;
5841;SDS011;2947;52.276;9.946;2023-05-31T15:04:10;5.43;;;2.17;;
5841;SDS011;2947;52.276;9.946;2023-05-31T15:06:36;5.43;;;1.60;;
5841;SDS011;2947;52.276;9.946;2023-05-31T15:09:02;5.53;;;2.15;;
5841;SDS011;2947;52.276;9.946;2023-05-31T15:11:29;3.90;;;1.85;;
5841;SDS011;2947;52.276;9.946;2023-05-31T15:13:55;7.03;;;1.80;;
5841;SDS011;2947;52.276;9.946;2023-05-31T15:16:22;7.97;;;2.13;;
5841;SDS011;2947;52.276;9.946;2023-05-31T15:18:48;8.13;;;2.10;;
5841;SDS011;2947;52.276;9.946;2023-05-31T15:21:15;6.35;;;1.88;;
5841;SDS011;2947;52.276;9.946;2023-05-31T15:23:41;3.72;;;2.17;;
5841;SDS011;2947;52.276;9.946;2023-05-31T15:26:07;5.65;;;2.45;;
5841;SDS011;2947;52.276;9.946;2023-05-31T15:28:33;7.93;;;2.22;;
5841;SDS011;2947;52.276;9.946;2023-05-31T15:30:59;8.13;;;1.92;;